createdAt,value
2018-09-28T00:01:11.567Z,1.17
2018-09-28T00:03:40.285Z,1.30
2018-09-28T00:06:08.956Z,1.10
2018-09-28T00:08:37.640Z,1.00
2018-09-28T00:11:06.549Z,1.10
2018-09-28T00:13:35.236Z,1.30
2018-09-28T00:16:03.903Z,1.10
2018-09-28T00:18:32.611Z,1.20
2018-09-28T00:21:01.309Z,1.37
2018-09-28T00:23:29.995Z,1.17
2018-09-28T00:25:58.716Z,1.10
2018-09-28T00:28:27.368Z,1.27
2018-09-28T00:30:56.047Z,1.33
2018-09-28T00:33:24.757Z,1.17
2018-09-28T00:35:53.471Z,1.23
2018-09-28T00:38:22.124Z,1.40
2018-09-28T00:40:50.812Z,1.30
2018-09-28T00:43:19.490Z,1.40
2018-09-28T00:45:48.167Z,1.20
2018-09-28T00:48:16.968Z,1.70
2018-09-28T00:50:49.464Z,1.50
2018-09-28T00:53:18.160Z,1.60
2018-09-28T00:55:46.835Z,1.80
2018-09-28T00:58:15.533Z,1.60
2018-09-28T01:00:44.212Z,1.47
2018-09-28T01:03:12.935Z,1.40
2018-09-28T01:05:41.637Z,1.87
2018-09-28T01:08:10.321Z,1.50
2018-09-28T01:10:39.061Z,1.47
2018-09-28T01:13:07.683Z,1.70
2018-09-28T01:15:36.372Z,1.67
2018-09-28T01:18:05.061Z,1.73
2018-09-28T01:20:33.744Z,1.57
2018-09-28T01:23:02.421Z,2.30
2018-09-28T01:25:31.098Z,1.60
2018-09-28T01:28:00.103Z,1.90
2018-09-28T01:30:29.013Z,1.87
2018-09-28T01:32:57.694Z,1.90
2018-09-28T01:35:26.423Z,2.00
2018-09-28T01:37:55.095Z,2.20
2018-09-28T01:40:23.800Z,2.07
2018-09-28T01:42:52.485Z,2.40
2018-09-28T01:45:21.171Z,2.20
2018-09-28T01:47:49.844Z,2.10
2018-09-28T01:50:18.534Z,2.80
2018-09-28T01:52:47.202Z,2.57
2018-09-28T01:55:15.948Z,2.30
2018-09-28T01:57:44.632Z,2.60
2018-09-28T02:00:13.320Z,2.83
2018-09-28T02:02:42.004Z,2.70
2018-09-28T02:05:10.891Z,2.60
2018-09-28T02:07:39.568Z,2.77
2018-09-28T02:10:08.362Z,2.37
2018-09-28T02:12:37.064Z,2.50
2018-09-28T02:15:05.757Z,2.33
2018-09-28T02:17:34.444Z,3.63
2018-09-28T02:20:03.132Z,2.70
2018-09-28T02:22:31.811Z,2.30
2018-09-28T02:25:00.507Z,2.50
2018-09-28T02:27:29.460Z,2.83
2018-09-28T02:29:58.219Z,2.30
2018-09-28T02:32:26.903Z,2.63
2018-09-28T02:34:55.596Z,2.67
2018-09-28T02:37:24.276Z,2.50
2018-09-28T02:39:52.972Z,2.67
2018-09-28T02:42:21.659Z,2.57
2018-09-28T02:44:50.350Z,2.63
2018-09-28T02:47:19.023Z,2.70
2018-09-28T02:49:47.707Z,2.80
2018-09-28T02:52:16.379Z,2.87
2018-09-28T02:54:45.068Z,2.83
2018-09-28T02:57:13.748Z,3.03
2018-09-28T02:59:42.477Z,3.03
2018-09-28T03:02:11.192Z,2.53
2018-09-28T03:04:39.939Z,3.13
2018-09-28T03:07:08.633Z,2.83
2018-09-28T03:09:37.311Z,3.50
2018-09-28T03:12:05.996Z,3.40
2018-09-28T03:14:34.703Z,3.00
2018-09-28T03:17:03.394Z,3.40
2018-09-28T03:19:32.107Z,3.77
2018-09-28T03:22:00.844Z,3.93
2018-09-28T03:24:29.968Z,3.87
2018-09-28T03:26:58.689Z,4.03
2018-09-28T03:29:27.472Z,3.70
2018-09-28T03:31:56.148Z,4.00
2018-09-28T03:34:24.904Z,4.20
2018-09-28T03:36:53.586Z,4.10
2018-09-28T03:39:22.264Z,4.00
2018-09-28T03:41:50.956Z,4.73
2018-09-28T03:44:19.732Z,4.03
2018-09-28T03:46:48.415Z,4.50
2018-09-28T03:49:17.088Z,4.33
2018-09-28T03:51:45.772Z,4.43
2018-09-28T03:54:14.459Z,4.73
2018-09-28T03:56:43.172Z,4.57
2018-09-28T03:59:11.852Z,4.90
2018-09-28T04:01:40.531Z,5.17
2018-09-28T04:04:09.247Z,5.20
2018-09-28T04:06:37.934Z,5.10
2018-09-28T04:09:08.292Z,4.57
2018-09-28T04:11:37.095Z,5.33
2018-09-28T04:14:05.779Z,4.70
2018-09-28T04:16:34.452Z,5.37
2018-09-28T04:19:03.136Z,5.77
2018-09-28T04:21:31.847Z,5.27
2018-09-28T04:24:00.528Z,5.37
2018-09-28T04:26:29.211Z,5.03
2018-09-28T04:28:57.891Z,5.60
2018-09-28T04:31:26.576Z,4.90
2018-09-28T04:33:55.251Z,5.23
2018-09-28T04:36:23.928Z,5.73
2018-09-28T04:38:52.599Z,5.50
2018-09-28T04:41:21.291Z,5.67
2018-09-28T04:43:49.959Z,5.40
2018-09-28T04:46:18.639Z,5.30
2018-09-28T04:48:47.311Z,4.80
2018-09-28T04:51:16.084Z,4.90
2018-09-28T04:53:44.759Z,5.30
2018-09-28T04:56:13.448Z,5.37
2018-09-28T04:58:42.123Z,5.20
2018-09-28T05:01:10.807Z,4.77
2018-09-28T05:03:39.481Z,6.10
2018-09-28T05:06:08.163Z,5.33
2018-09-28T05:08:36.844Z,5.43
2018-09-28T05:11:05.528Z,5.03
2018-09-28T05:13:34.203Z,4.67
2018-09-28T05:16:02.892Z,4.80
2018-09-28T05:18:31.579Z,4.47
2018-09-28T05:21:00.971Z,5.25
2018-09-28T05:23:29.700Z,5.00
2018-09-28T05:25:58.395Z,4.80
2018-09-28T05:28:27.071Z,5.10
2018-09-28T05:30:55.803Z,5.03
2018-09-28T05:33:24.532Z,5.17
2018-09-28T05:35:53.210Z,5.73
2018-09-28T05:38:21.911Z,5.23
2018-09-28T05:40:50.663Z,5.60
2018-09-28T05:43:19.751Z,5.43
2018-09-28T05:45:48.427Z,5.50
2018-09-28T05:48:17.099Z,4.93
2018-09-28T05:50:45.855Z,5.67
2018-09-28T05:53:14.528Z,4.57
2018-09-28T05:55:43.301Z,5.03
2018-09-28T05:58:17.235Z,4.33
2018-09-28T06:00:51.335Z,5.57
2018-09-28T06:03:21.827Z,6.27
2018-09-28T06:05:55.948Z,5.67
2018-09-28T06:08:24.619Z,5.83
2018-09-28T06:10:53.300Z,5.30
2018-09-28T06:13:22.400Z,5.57
2018-09-28T06:15:51.403Z,5.77
2018-09-28T06:18:20.211Z,5.60
2018-09-28T06:20:48.895Z,5.97
2018-09-28T06:23:17.566Z,6.07
2018-09-28T06:25:46.328Z,6.80
2018-09-28T06:28:14.948Z,8.10
2018-09-28T06:30:43.695Z,7.90
2018-09-28T06:33:12.384Z,8.47
2018-09-28T06:35:41.072Z,8.83
2018-09-28T06:38:09.771Z,9.87
2018-09-28T06:40:38.447Z,7.67
2018-09-28T06:43:07.140Z,9.47
2018-09-28T06:45:35.819Z,9.00
2018-09-28T06:48:04.516Z,9.60
2018-09-28T06:50:33.201Z,9.10
2018-09-28T06:53:01.954Z,9.30
2018-09-28T06:55:31.487Z,8.37
2018-09-28T06:58:00.223Z,9.23
2018-09-28T07:00:28.864Z,9.37
2018-09-28T07:02:57.579Z,10.47
2018-09-28T07:05:26.263Z,11.00
2018-09-28T07:07:54.955Z,9.23
2018-09-28T07:10:23.644Z,9.23
2018-09-28T07:12:52.322Z,7.03
2018-09-28T07:15:21.015Z,9.80
2018-09-28T07:17:49.830Z,7.20
2018-09-28T07:20:18.399Z,9.30
2018-09-28T07:22:47.128Z,9.33
2018-09-28T07:25:15.895Z,10.10
2018-09-28T07:27:44.552Z,9.07
2018-09-28T07:30:13.268Z,10.83
2018-09-28T07:32:41.939Z,6.53
2018-09-28T07:35:10.616Z,9.27
2018-09-28T07:37:39.303Z,8.63
2018-09-28T07:40:08.013Z,8.17
2018-09-28T07:42:36.711Z,6.43
2018-09-28T07:45:05.395Z,9.40
2018-09-28T07:47:34.091Z,7.33
2018-09-28T07:50:02.768Z,9.30
2018-09-28T07:52:32.096Z,11.50
2018-09-28T07:55:00.783Z,7.60
2018-09-28T07:57:29.480Z,7.77
2018-09-28T07:59:58.179Z,9.30
2018-09-28T08:02:26.867Z,9.30
2018-09-28T08:04:55.552Z,7.03
2018-09-28T08:07:24.247Z,12.57
2018-09-28T08:09:52.931Z,12.70
2018-09-28T08:12:21.629Z,15.33
2018-09-28T08:14:50.312Z,12.53
2018-09-28T08:17:19.008Z,9.17
2018-09-28T08:19:47.685Z,8.90
2018-09-28T08:22:16.379Z,15.30
2018-09-28T08:24:45.200Z,9.67
2018-09-28T08:27:13.775Z,11.90
2018-09-28T08:29:42.508Z,15.73
2018-09-28T08:32:11.207Z,12.50
2018-09-28T08:34:39.892Z,13.07
2018-09-28T08:37:08.595Z,12.20
2018-09-28T08:39:37.315Z,10.10
2018-09-28T08:42:06.396Z,9.37
2018-09-28T08:44:35.069Z,12.87
2018-09-28T08:47:03.750Z,13.03
2018-09-28T08:49:32.724Z,15.70
2018-09-28T08:52:01.412Z,15.70
2018-09-28T08:54:30.087Z,8.40
2018-09-28T08:56:58.783Z,13.27
2018-09-28T08:59:27.475Z,10.40
2018-09-28T09:01:56.199Z,19.20
2018-09-28T09:04:25.104Z,15.17
2018-09-28T09:06:54.444Z,17.43
2018-09-28T09:09:23.138Z,17.47
2018-09-28T09:11:51.817Z,17.93
2018-09-28T09:14:20.504Z,17.13
2018-09-28T09:16:49.187Z,19.77
2018-09-28T09:19:17.872Z,17.53
2018-09-28T09:21:46.551Z,14.30
2018-09-28T09:24:15.247Z,15.20
2018-09-28T09:26:44.100Z,20.20
2018-09-28T09:29:12.824Z,18.17
2018-09-28T09:31:41.560Z,14.07
2018-09-28T09:34:10.285Z,17.83
2018-09-28T09:36:39.054Z,13.57
2018-09-28T09:39:08.607Z,13.83
2018-09-28T09:41:37.307Z,13.17
2018-09-28T09:44:06.008Z,17.03
2018-09-28T09:46:34.692Z,16.53
2018-09-28T09:49:03.400Z,13.33
2018-09-28T09:51:33.007Z,12.10
2018-09-28T09:54:01.700Z,11.93
2018-09-28T09:56:30.379Z,10.23
2018-09-28T09:58:59.075Z,15.63
2018-09-28T10:01:33.330Z,16.00
2018-09-28T10:04:09.161Z,9.73
2018-09-28T10:06:37.872Z,16.33
2018-09-28T10:09:08.487Z,18.93
2018-09-28T10:11:37.339Z,20.67
2018-09-28T10:14:06.101Z,28.37
2018-09-28T10:16:34.779Z,24.80
2018-09-28T10:19:03.599Z,33.40
2018-09-28T10:21:33.252Z,22.67
2018-09-28T10:24:02.103Z,25.53
2018-09-28T10:26:30.840Z,25.53
2018-09-28T10:28:59.584Z,34.17
2018-09-28T10:31:28.312Z,24.37
2018-09-28T10:33:57.051Z,34.73
2018-09-28T10:36:25.740Z,29.47
2018-09-28T10:38:54.451Z,25.73
2018-09-28T10:41:23.139Z,35.53
2018-09-28T10:43:52.087Z,29.30
2018-09-28T10:46:20.780Z,31.13
2018-09-28T10:48:49.467Z,21.67
2018-09-28T10:51:18.440Z,38.50
2018-09-28T10:53:47.064Z,23.37
2018-09-28T10:56:15.751Z,36.20
2018-09-28T10:58:44.464Z,43.77
2018-09-28T11:01:13.208Z,28.27
2018-09-28T11:03:41.929Z,46.03
2018-09-28T11:06:10.752Z,56.70
2018-09-28T11:08:39.486Z,50.80
2018-09-28T11:11:08.171Z,51.17
2018-09-28T11:13:36.876Z,56.80
2018-09-28T11:16:05.564Z,49.70
2018-09-28T11:18:34.275Z,44.10
2018-09-28T11:21:03.875Z,33.63
2018-09-28T11:23:32.567Z,41.60
2018-09-28T11:26:01.252Z,33.20
2018-09-28T11:28:29.947Z,32.23
2018-09-28T11:30:58.631Z,32.40
2018-09-28T11:33:27.420Z,25.23
2018-09-28T11:35:56.022Z,24.50
2018-09-28T11:38:24.712Z,35.03
2018-09-28T11:40:53.487Z,31.10
2018-09-28T11:43:22.431Z,28.47
2018-09-28T11:45:51.061Z,23.40
2018-09-28T11:48:19.717Z,15.73
2018-09-28T11:50:48.387Z,19.63
2018-09-28T11:53:17.060Z,20.63
2018-09-28T11:55:45.740Z,18.73
2018-09-28T11:58:14.407Z,22.40
2018-09-28T12:00:43.092Z,20.47
2018-09-28T12:03:11.791Z,20.93
2018-09-28T12:05:40.443Z,11.97
2018-09-28T12:08:09.119Z,12.90
2018-09-28T12:10:37.792Z,9.97
2018-09-28T12:13:06.452Z,9.93
2018-09-28T12:15:35.163Z,9.50
2018-09-28T12:18:04.136Z,8.15
2018-09-28T12:20:32.811Z,5.40
2018-09-28T12:23:01.479Z,7.30
2018-09-28T12:25:30.151Z,6.00
2018-09-28T12:27:58.899Z,10.13
2018-09-28T12:30:27.671Z,8.07
2018-09-28T12:32:56.272Z,6.90
2018-09-28T12:35:24.952Z,6.30
2018-09-28T12:37:53.620Z,4.67
2018-09-28T12:40:22.304Z,6.90
2018-09-28T12:42:51.017Z,8.50
2018-09-28T12:45:19.701Z,8.43
2018-09-28T12:47:48.338Z,10.53
2018-09-28T12:50:17.074Z,5.67
2018-09-28T12:52:45.707Z,8.93
2018-09-28T12:55:14.391Z,9.57
2018-09-28T12:57:43.067Z,10.17
2018-09-28T13:00:11.758Z,8.77
2018-09-28T13:02:41.320Z,11.23
2018-09-28T13:05:09.951Z,10.27
2018-09-28T13:07:38.632Z,6.87
2018-09-28T13:10:07.508Z,9.80
2018-09-28T13:12:36.234Z,9.17
2018-09-28T13:15:05.052Z,11.37
2018-09-28T13:17:33.633Z,10.33
2018-09-28T13:20:02.321Z,11.53
2018-09-28T13:22:30.999Z,14.17
2018-09-28T13:24:59.684Z,13.13
2018-09-28T13:27:28.364Z,15.33
2018-09-28T13:29:57.055Z,16.37
2018-09-28T13:32:25.811Z,17.23
2018-09-28T13:34:54.429Z,17.90
2018-09-28T13:37:23.103Z,15.95
2018-09-28T13:39:51.783Z,17.13
2018-09-28T13:42:20.557Z,17.97
2018-09-28T13:44:49.256Z,17.63
2018-09-28T13:47:17.874Z,15.43
2018-09-28T13:49:46.572Z,19.73
2018-09-28T13:52:15.344Z,19.17
2018-09-28T13:54:44.851Z,18.83
2018-09-28T13:57:13.546Z,19.60
2018-09-28T13:59:42.226Z,18.03
2018-09-28T14:02:10.967Z,18.57
2018-09-28T14:04:39.645Z,18.53
2018-09-28T14:07:08.414Z,18.03
2018-09-28T14:09:37.002Z,20.73
2018-09-28T14:12:05.759Z,24.13
2018-09-28T14:14:34.419Z,10.63
2018-09-28T14:17:03.088Z,10.97
2018-09-28T14:19:31.767Z,14.23
2018-09-28T14:22:00.438Z,13.63
2018-09-28T14:24:29.228Z,14.33
2018-09-28T14:26:57.814Z,13.30
2018-09-28T14:29:26.540Z,13.80
2018-09-28T14:31:55.214Z,12.50
2018-09-28T14:34:23.910Z,13.00
2018-09-28T14:36:52.663Z,12.60
2018-09-28T14:39:21.407Z,13.75
2018-09-28T14:41:50.228Z,14.47
2018-09-28T14:44:18.948Z,12.13
2018-09-28T14:46:47.640Z,12.80
2018-09-28T14:49:16.891Z,10.70
2018-09-28T14:51:45.572Z,12.63
2018-09-28T14:54:14.340Z,12.10
2018-09-28T14:56:43.059Z,11.00
2018-09-28T14:59:11.727Z,12.30
2018-09-28T15:01:40.456Z,11.37
2018-09-28T15:04:09.154Z,13.13
2018-09-28T15:06:37.859Z,11.73
2018-09-28T15:09:07.294Z,12.30
2018-09-28T15:11:36.172Z,11.73
2018-09-28T15:14:04.854Z,11.33
2018-09-28T15:16:33.580Z,11.13
2018-09-28T15:19:02.232Z,10.93
2018-09-28T15:21:30.915Z,11.57
2018-09-28T15:23:59.633Z,10.60
2018-09-28T15:26:28.303Z,10.80
2018-09-28T15:28:56.971Z,11.40
2018-09-28T15:31:25.691Z,11.60
2018-09-28T15:33:54.532Z,11.03
2018-09-28T15:36:23.247Z,10.77
2018-09-28T15:38:51.927Z,11.20
2018-09-28T15:41:20.652Z,10.50
2018-09-28T15:43:49.319Z,9.20
2018-09-28T15:46:17.999Z,7.37
2018-09-28T15:48:47.382Z,7.90
2018-09-28T15:51:16.060Z,7.77
2018-09-28T15:53:44.731Z,7.40
2018-09-28T15:56:13.419Z,6.00
2018-09-28T15:58:42.082Z,5.97
2018-09-28T16:01:10.767Z,5.87
2018-09-28T16:03:39.444Z,5.80
2018-09-28T16:06:08.123Z,5.77
2018-09-28T16:08:36.786Z,4.83
2018-09-28T16:11:05.476Z,4.10
2018-09-28T16:13:34.333Z,3.87
2018-09-28T16:16:03.016Z,3.90
2018-09-28T16:18:31.744Z,3.60
2018-09-28T16:21:00.371Z,3.13
2018-09-28T16:23:29.033Z,2.50
2018-09-28T16:25:57.752Z,2.70
2018-09-28T16:28:26.415Z,2.60
2018-09-28T16:30:55.156Z,2.57
2018-09-28T16:33:23.831Z,1.77
2018-09-28T16:35:52.753Z,2.20
2018-09-28T16:38:21.560Z,2.60
2018-09-28T16:40:50.277Z,2.00
2018-09-28T16:43:19.127Z,2.23
2018-09-28T16:45:47.876Z,1.70
2018-09-28T16:48:16.543Z,1.93
2018-09-28T16:50:45.256Z,2.33
2018-09-28T16:53:14.175Z,2.10
2018-09-28T16:55:42.857Z,2.40
2018-09-28T16:58:11.566Z,1.47
2018-09-28T17:00:40.291Z,2.00
2018-09-28T17:03:09.403Z,1.73
2018-09-28T17:05:38.136Z,1.80
2018-09-28T17:08:07.107Z,2.20
2018-09-28T17:10:35.807Z,1.57
2018-09-28T17:13:04.488Z,1.80
2018-09-28T17:15:33.160Z,1.63
2018-09-28T17:18:01.815Z,1.27
2018-09-28T17:20:30.475Z,1.30
2018-09-28T17:22:59.143Z,1.03
2018-09-28T17:25:27.820Z,1.63
2018-09-28T17:27:56.507Z,1.30
2018-09-28T17:30:25.384Z,1.10
2018-09-28T17:32:54.046Z,1.10
2018-09-28T17:35:22.719Z,1.10
2018-09-28T17:37:51.616Z,1.00
2018-09-28T17:40:20.288Z,0.90
2018-09-28T17:42:48.963Z,1.70
2018-09-28T17:45:18.533Z,1.47
2018-09-28T17:47:47.209Z,1.27
2018-09-28T17:50:15.874Z,1.33
2018-09-28T17:52:44.536Z,1.07
2018-09-28T17:55:13.184Z,0.90
2018-09-28T17:57:41.923Z,0.77
2018-09-28T18:00:10.708Z,1.30
2018-09-28T18:02:39.371Z,1.00
2018-09-28T18:05:08.031Z,1.37
2018-09-28T18:07:36.793Z,1.00
2018-09-28T18:10:05.543Z,1.10
2018-09-28T18:12:34.221Z,0.90
2018-09-28T18:15:02.896Z,1.10
2018-09-28T18:17:31.562Z,1.40
2018-09-28T18:20:00.250Z,1.00
2018-09-28T18:22:28.975Z,0.77
2018-09-28T18:24:57.607Z,0.97
2018-09-28T18:27:26.327Z,1.90
2018-09-28T18:29:55.009Z,1.20
2018-09-28T18:32:23.683Z,0.70
2018-09-28T18:34:52.350Z,1.00
2018-09-28T18:37:21.088Z,1.07
2018-09-28T18:39:49.788Z,1.17
2018-09-28T18:42:19.331Z,1.10
2018-09-28T18:44:47.968Z,1.03
2018-09-28T18:47:16.635Z,1.30
2018-09-28T18:49:45.295Z,1.00
2018-09-28T18:52:14.016Z,1.20
2018-09-28T18:54:42.699Z,0.87
2018-09-28T18:57:11.362Z,0.77
2018-09-28T18:59:40.035Z,0.77
2018-09-28T19:02:08.713Z,0.60
2018-09-28T19:04:37.427Z,0.80
2018-09-28T19:07:06.163Z,1.47
2018-09-28T19:09:34.847Z,0.63
2018-09-28T19:12:03.523Z,0.40
2018-09-28T19:14:32.182Z,0.63
2018-09-28T19:17:00.891Z,0.60
2018-09-28T19:19:29.568Z,0.70
2018-09-28T19:21:58.264Z,0.87
2018-09-28T19:24:26.928Z,0.77
2018-09-28T19:26:55.635Z,0.80
2018-09-28T19:29:24.283Z,0.93
2018-09-28T19:31:52.960Z,1.03
2018-09-28T19:34:21.759Z,0.47
2018-09-28T19:36:50.562Z,0.53
2018-09-28T19:39:19.627Z,0.80
2018-09-28T19:41:48.367Z,0.60
2018-09-28T19:44:17.052Z,0.57
2018-09-28T19:46:45.776Z,0.90
2018-09-28T19:49:14.569Z,0.83
2018-09-28T19:51:43.277Z,0.93
2018-09-28T19:54:11.999Z,0.87
2018-09-28T19:56:41.470Z,0.80
2018-09-28T19:59:10.147Z,0.70
2018-09-28T20:01:38.814Z,0.73
2018-09-28T20:04:07.514Z,0.87
2018-09-28T20:06:36.295Z,0.60
2018-09-28T20:09:07.348Z,0.70
2018-09-28T20:11:36.031Z,0.83
2018-09-28T20:14:04.712Z,1.40
2018-09-28T20:16:33.383Z,0.93
2018-09-28T20:19:02.107Z,0.77
2018-09-28T20:21:30.824Z,1.03
2018-09-28T20:23:59.575Z,0.33
2018-09-28T20:26:28.240Z,1.20
2018-09-28T20:28:56.963Z,0.70
2018-09-28T20:31:25.640Z,0.60
2018-09-28T20:33:54.340Z,0.73
2018-09-28T20:36:23.012Z,0.70
2018-09-28T20:38:51.692Z,0.70
2018-09-28T20:41:20.567Z,0.60
2018-09-28T20:43:49.948Z,0.77
2018-09-28T20:46:18.608Z,0.47
2018-09-28T20:48:47.286Z,0.67
2018-09-28T20:51:15.947Z,0.70
2018-09-28T20:53:44.651Z,0.50
2018-09-28T20:56:13.316Z,0.70
2018-09-28T20:58:41.990Z,1.00
2018-09-28T21:01:10.759Z,0.90
2018-09-28T21:03:39.436Z,1.13
2018-09-28T21:06:08.107Z,0.50
2018-09-28T21:08:36.776Z,0.73
2018-09-28T21:11:05.447Z,0.90
2018-09-28T21:13:34.151Z,0.40
2018-09-28T21:16:02.787Z,0.90
2018-09-28T21:18:31.460Z,0.70
2018-09-28T21:21:00.119Z,1.07
2018-09-28T21:23:28.833Z,0.40
2018-09-28T21:25:57.500Z,0.50
2018-09-28T21:28:26.175Z,0.77
2018-09-28T21:30:54.855Z,0.60
2018-09-28T21:33:23.563Z,0.47
2018-09-28T21:35:58.755Z,0.60
2018-09-28T21:38:27.429Z,0.80
2018-09-28T21:40:56.176Z,0.33
2018-09-28T21:43:24.855Z,0.40
2018-09-28T21:45:53.552Z,0.63
2018-09-28T21:48:22.227Z,0.67
2018-09-28T21:50:50.899Z,0.47
2018-09-28T21:53:20.491Z,0.47
2018-09-28T21:55:49.172Z,0.97
2018-09-28T21:58:17.875Z,0.57
2018-09-28T22:00:50.827Z,0.63
2018-09-28T22:03:19.512Z,0.70
2018-09-28T22:05:48.189Z,0.90
2018-09-28T22:08:16.876Z,1.00
2018-09-28T22:10:45.548Z,0.60
2018-09-28T22:13:14.236Z,0.50
2018-09-28T22:15:42.903Z,0.70
2018-09-28T22:18:11.691Z,0.70
2018-09-28T22:20:40.372Z,0.60
2018-09-28T22:23:09.143Z,0.97
2018-09-28T22:25:37.824Z,0.50
2018-09-28T22:28:06.500Z,1.27
2018-09-28T22:30:35.175Z,0.60
2018-09-28T22:33:03.855Z,0.57
2018-09-28T22:35:32.536Z,1.20
2018-09-28T22:38:01.217Z,0.77
2018-09-28T22:40:29.903Z,1.20
2018-09-28T22:42:58.575Z,2.93
2018-09-28T22:45:27.256Z,1.00
2018-09-28T22:47:55.927Z,1.10
2018-09-28T22:50:24.607Z,1.47
2018-09-28T22:52:53.285Z,1.13
2018-09-28T22:55:21.962Z,0.90
2018-09-28T22:57:50.980Z,0.90
2018-09-28T23:00:19.659Z,0.87
2018-09-28T23:02:48.565Z,0.63
2018-09-28T23:05:17.244Z,0.90
2018-09-28T23:07:45.927Z,0.50
2018-09-28T23:10:14.612Z,0.60
2018-09-28T23:12:43.292Z,0.60
2018-09-28T23:15:11.971Z,0.80
2018-09-28T23:17:40.646Z,0.90
2018-09-28T23:20:09.328Z,0.63
2018-09-28T23:22:38.004Z,0.80
2018-09-28T23:25:06.679Z,0.63
2018-09-28T23:27:35.349Z,0.60
2018-09-28T23:30:04.063Z,0.90
2018-09-28T23:32:32.739Z,0.90
2018-09-28T23:35:01.423Z,1.03
2018-09-28T23:37:30.100Z,0.60
2018-09-28T23:39:58.781Z,1.03
2018-09-28T23:42:27.472Z,1.50
2018-09-28T23:44:56.151Z,1.03
2018-09-28T23:47:24.845Z,0.90
2018-09-28T23:49:53.507Z,0.63
2018-09-28T23:52:22.184Z,0.60
2018-09-28T23:54:51.760Z,0.82
2018-09-28T23:57:21.343Z,0.80
2018-09-28T23:59:50.020Z,1.07
